This is the latest recevied weather packets stored in our database for station/object OK2ZI. If no packets are shown the sender has not sent any weather packets the latest 10 day(s).
| Time | Temp. | Humidity | Pressure | Rain* | Wind** | Luminosity | Snow |
|---|---|---|---|---|---|---|---|
| 1778272926 | 7.22° C | 85% | 1016 hPa | 0 mm | - | - | - |
| 1778271967 | 8.33° C | 83% | 1016 hPa | 0 mm | - | - | - |
| 1778271127 | 8.89° C | 81% | 1016 hPa | 0 mm | - | - | - |
| 1778271012 | 8.89° C | 81% | 1016 hPa | 0 mm | - | - | - |
| 1778270287 | 8.89° C | 80% | 1015 hPa | 0 mm | - | - | - |
| 1778269086 | 9.44° C | 79% | 1015 hPa | 0 mm | - | - | - |
| 1778268613 | 9.44° C | 79% | 1015 hPa | 0 mm | - | - | - |
| 1778267286 | 10° C | 77% | 1015 hPa | 0 mm | - | - | - |
| 1778266926 | 10° C | 77% | 1015 hPa | 0 mm | - | - | - |
| 1778266446 | 10° C | 77% | 1015 hPa | 0 mm | - | - | - |
| 1778265126 | 11.11° C | 73% | 1014 hPa | 0 mm | - | - | - |
| 1778263447 | 12.78° C | 68% | 1014 hPa | 0 mm | - | - | - |
| 1778263220 | 12.78° C | 67% | 1014 hPa | 0 mm | - | - | - |
| 1778262011 | 13.89° C | 64% | 1014 hPa | 0 mm | - | - | - |
| 1778261767 | 13.89° C | 64% | 1014 hPa | 0 mm | - | - | - |
| 1778260685 | 14.44° C | 62% | 1014 hPa | 0 mm | - | - | - |
| 1778260566 | 14.44° C | 62% | 1014 hPa | 0 mm | - | - | - |
| 1778259247 | 15° C | 60% | 1014 hPa | 0 mm | - | - | - |
| 1778258167 | 15.56° C | 58% | 1014 hPa | 0 mm | - | - | - |
| 1778257815 | 15.56° C | 57% | 1014 hPa | 0 mm | - | - | - |
| 1778257211 | 15.56° C | 56% | 1014 hPa | 0 mm | - | - | - |
| 1778256966 | 16.11° C | 55% | 1014 hPa | 0 mm | - | - | - |
| 1778256846 | 15.56° C | 55% | 1014 hPa | 0 mm | - | - | - |
| 1778256726 | 15.56° C | 55% | 1014 hPa | 0 mm | - | - | - |
| 1778254567 | 16.67° C | 49% | 1014 hPa | 0 mm | - | - | - |
* Rain latest hour (hover to see other rain measurements)
** Current wind speed in m/s (hover to see current wind gust speed)